Time;durP1;ratioP1;P1;durP2;ratioP2;P2;SDS_P1;SDS_P2;PMS_P1;PMS_P2;Temp;Humidity;BMP_temperature;BMP_pressure;BME280_temperature;BME280_humidity;BME280_pressure;Samples;Min_cycle;Max_cycle;Signal;HPM_P1;HPM_P2
2022/01/31 00:01:46;;;;;;;3.60;3.23;;;;;;;-2.95;80.33;99033.22;5073469;28;20513;-69
2022/01/31 00:04:11;;;;;;;4.45;3.67;;;;;;;-2.89;81.04;99032.75;5073149;28;20291;-69
2022/01/31 00:06:37;;;;;;;4.40;4.00;;;;;;;-2.86;80.79;99036.91;5073385;28;20059;-72
2022/01/31 00:09:03;;;;;;;3.75;3.35;;;;;;;-2.89;80.52;99047.53;5073830;28;20052;-72
2022/01/31 00:11:29;;;;;;;4.37;3.73;;;;;;;-2.87;80.55;99035.25;5073652;28;20040;-73
2022/01/31 00:14:02;;;;;;;4.73;3.70;;;;;;;-2.80;80.85;99033.81;5073214;28;20478;-71
2022/01/31 00:16:32;;;;;;;5.18;4.30;;;;;;;-2.82;80.70;99033.09;5055240;28;20049;-74
2022/01/31 00:18:59;;;;;;;4.15;3.75;;;;;;;-2.81;80.77;99045.19;5073551;28;20602;-69
2022/01/31 00:21:25;;;;;;;5.60;5.10;;;;;;;-2.86;80.72;99048.16;5073003;28;20032;-73
2022/01/31 00:23:51;;;;;;;4.97;3.75;;;;;;;-2.92;80.83;99040.78;5075243;28;20072;-73
2022/01/31 00:26:17;;;;;;;5.63;4.20;;;;;;;-2.97;81.12;99045.53;5062625;28;20033;-69
2022/01/31 00:28:42;;;;;;;4.17;3.40;;;;;;;-3.06;80.68;99024.59;5056834;28;20178;-72
2022/01/31 00:31:08;;;;;;;4.30;3.83;;;;;;;-2.91;80.77;99050.25;5075847;28;20043;-71
2022/01/31 00:33:33;;;;;;;4.57;4.10;;;;;;;-2.85;79.89;99062.81;5074340;28;20044;-74
2022/01/31 00:35:59;;;;;;;4.33;3.93;;;;;;;-2.96;80.12;99049.78;5073403;28;20029;-72
2022/01/31 00:38:24;;;;;;;4.30;3.90;;;;;;;-2.97;80.50;99045.53;5073423;28;20496;-74
2022/01/31 00:40:50;;;;;;;5.87;3.80;;;;;;;-3.00;80.60;99050.16;5073256;28;20036;-72
2022/01/31 00:43:17;;;;;;;4.23;3.60;;;;;;;-2.95;80.87;99058.44;5073780;28;20434;-73
2022/01/31 00:45:57;;;;;;;6.07;3.72;;;;;;;-3.05;80.37;99047.91;5072891;28;20032;-72
2022/01/31 00:48:25;;;;;;;4.35;3.80;;;;;;;-3.07;81.57;99047.19;5073035;28;20044;-69
2022/01/31 00:50:51;;;;;;;4.90;3.53;;;;;;;-2.98;80.23;99056.91;5072701;28;20407;-71
2022/01/31 00:53:16;;;;;;;4.27;3.87;;;;;;;-3.02;80.38;99058.09;5072512;28;20044;-71
2022/01/31 00:55:42;;;;;;;4.10;3.70;;;;;;;-2.98;80.38;99064.72;5072736;28;20043;-71
2022/01/31 00:58:08;;;;;;;4.93;3.97;;;;;;;-3.01;80.13;99070.16;5072202;28;20125;-71
2022/01/31 01:00:34;;;;;;;4.43;3.63;;;;;;;-3.14;80.85;99035.59;5072816;28;20040;-69
2022/01/31 01:02:59;;;;;;;4.50;3.67;;;;;;;-3.01;80.48;99053.72;5072347;28;20403;-69
2022/01/31 01:05:25;;;;;;;4.67;3.80;;;;;;;-2.86;79.78;99066.38;5072422;28;20116;-72
2022/01/31 01:07:51;;;;;;;4.33;3.93;;;;;;;-2.85;79.56;99070.66;5072181;28;20052;-69
2022/01/31 01:10:18;;;;;;;4.50;3.97;;;;;;;-2.92;79.54;99064.22;5072548;28;20036;-74
2022/01/31 01:12:45;;;;;;;6.45;4.65;;;;;;;-2.99;80.81;99063.06;5072464;28;20037;-72
2022/01/31 01:15:11;;;;;;;4.45;4.03;;;;;;;-2.93;80.70;99078.19;5054318;28;20032;-71
2022/01/31 01:17:36;;;;;;;4.00;3.60;;;;;;;-3.05;80.63;99060.94;5073027;28;20055;-73
2022/01/31 01:20:06;;;;;;;4.80;3.60;;;;;;;-2.85;80.69;99088.88;5073001;28;20029;-72
2022/01/31 01:22:32;;;;;;;4.57;4.07;;;;;;;-2.91;79.77;99089.31;5053989;28;20384;-70
2022/01/31 01:24:59;;;;;;;5.78;4.63;;;;;;;-2.90;79.88;99090.97;5071920;28;20070;-73
2022/01/31 01:27:24;;;;;;;5.25;3.95;;;;;;;-2.95;80.61;99082.69;5072443;28;20460;-69
2022/01/31 01:29:50;;;;;;;6.43;5.10;;;;;;;-2.90;80.45;99083.16;5072415;28;20123;-71
2022/01/31 01:32:16;;;;;;;6.47;4.17;;;;;;;-2.84;80.16;99082.72;5072165;28;20452;-69
2022/01/31 01:34:43;;;;;;;5.72;5.03;;;;;;;-2.92;80.12;99079.84;5071828;28;20113;-71
2022/01/31 01:37:08;;;;;;;7.97;4.82;;;;;;;-2.94;80.44;99081.75;5071694;28;20043;-73
2022/01/31 01:39:34;;;;;;;5.33;4.50;;;;;;;-2.94;79.76;99078.31;5053546;28;20029;-72
2022/01/31 01:42:00;;;;;;;5.17;4.67;;;;;;;-3.09;80.51;99064.72;5071847;28;20043;-71
2022/01/31 01:44:38;;;;;;;5.00;4.43;;;;;;;-2.94;80.41;99099.16;5071730;28;20041;-73
2022/01/31 01:47:04;;;;;;;6.43;4.63;;;;;;;-3.08;81.58;99081.16;5071650;28;20047;-71
2022/01/31 01:49:30;;;;;;;6.40;5.10;;;;;;;-3.02;81.45;99099.75;5053883;28;20119;-70
2022/01/31 01:51:55;;;;;;;6.27;5.30;;;;;;;-3.08;81.59;99089.81;5071501;28;20123;-72
2022/01/31 01:54:21;;;;;;;6.17;4.50;;;;;;;-3.03;81.34;99097.28;5053553;28;20032;-71
2022/01/31 01:56:46;;;;;;;6.17;5.00;;;;;;;-3.09;81.84;99082.94;5071510;28;20062;-73
2022/01/31 01:59:12;;;;;;;6.60;4.70;;;;;;;-3.02;80.96;99084.13;5071608;28;20038;-72
2022/01/31 02:01:37;;;;;;;6.77;5.03;;;;;;;-2.93;81.36;99093.84;5071356;28;20036;-73
2022/01/31 02:04:03;;;;;;;7.50;5.10;;;;;;;-3.06;80.52;99077.50;5071434;28;20055;-72
2022/01/31 02:06:29;;;;;;;6.63;5.00;;;;;;;-2.92;81.10;99098.09;5071226;28;20058;-69
2022/01/31 02:08:56;;;;;;;5.73;4.87;;;;;;;-2.96;81.45;99088.84;5071432;28;20159;-73
2022/01/31 02:11:21;;;;;;;7.82;5.40;;;;;;;-2.95;81.21;99095.72;5071664;28;20090;-72
2022/01/31 02:13:47;;;;;;;9.27;5.43;;;;;;;-3.03;81.55;99084.25;5071569;28;20036;-74
2022/01/31 02:16:13;;;;;;;5.93;5.00;;;;;;;-3.04;81.89;99091.22;5071645;28;20541;-73
2022/01/31 02:18:47;;;;;;;6.00;5.40;;;;;;;-3.12;81.45;99077.97;5073990;28;20037;-71
2022/01/31 02:21:13;;;;;;;9.55;5.75;;;;;;;-3.01;81.55;99080.56;5075320;28;20090;-70
2022/01/31 02:23:39;;;;;;;6.47;5.57;;;;;;;-2.97;81.31;99104.59;5075438;28;20036;-71
2022/01/31 02:26:05;;;;;;;7.47;5.57;;;;;;;-2.94;81.48;99094.78;5074875;28;20043;-70
2022/01/31 02:28:33;;;;;;;7.32;5.13;;;;;;;-3.29;81.23;99045.41;5075823;28;20075;-73
2022/01/31 02:31:00;;;;;;;7.22;5.75;;;;;;;-3.07;81.58;99091.47;5075244;28;20414;-70
2022/01/31 02:33:25;;;;;;;9.23;6.25;;;;;;;-3.08;82.27;99100.22;5057505;28;20488;-73
2022/01/31 02:35:58;;;;;;;7.60;6.80;;;;;;;-3.09;81.89;99095.97;5074813;28;20028;-69
2022/01/31 02:38:24;;;;;;;7.82;6.25;;;;;;;-3.04;81.48;99101.66;5074988;28;20040;-71
2022/01/31 02:40:50;;;;;;;7.60;5.87;;;;;;;-3.06;81.20;99092.31;5075052;28;20544;-74
2022/01/31 02:43:24;;;;;;;7.07;5.45;;;;;;;-2.91;81.13;99097.16;5057206;28;20040;-73
2022/01/31 02:45:50;;;;;;;7.65;5.45;;;;;;;-2.92;81.39;99079.84;5075417;28;20074;-74
2022/01/31 02:48:19;;;;;;;8.10;5.55;;;;;;;-2.93;80.73;99083.41;5074962;28;20033;-70
2022/01/31 02:50:45;;;;;;;10.65;6.65;;;;;;;-2.84;80.72;99095.75;5075131;28;20052;-73
2022/01/31 02:53:22;;;;;;;8.13;5.70;;;;;;;-2.93;81.13;99093.84;5075635;28;20125;-70
2022/01/31 02:55:48;;;;;;;8.73;5.78;;;;;;;-2.97;80.60;99096.78;5075553;28;20396;-70
2022/01/31 02:58:15;;;;;;;7.90;5.65;;;;;;;-3.07;81.19;99091.47;5074814;28;20032;-72
2022/01/31 03:00:41;;;;;;;7.97;5.85;;;;;;;-3.06;81.42;99103.53;5056785;28;20052;-70
2022/01/31 03:03:07;;;;;;;6.07;5.43;;;;;;;-3.15;81.10;99092.06;5075148;28;20167;-73
2022/01/31 03:05:32;;;;;;;6.18;5.35;;;;;;;-3.08;81.93;99107.22;5076054;28;20123;-72
2022/01/31 03:07:59;;;;;;;6.37;5.33;;;;;;;-3.16;81.63;99097.38;5057755;28;20096;-73
2022/01/31 03:10:26;;;;;;;6.20;4.88;;;;;;;-3.20;81.06;99091.56;5075403;28;20040;-73
2022/01/31 03:12:51;;;;;;;7.70;5.75;;;;;;;-3.04;81.10;99106.84;5056800;28;20495;-73
2022/01/31 03:15:17;;;;;;;7.07;5.70;;;;;;;-3.03;80.79;99103.31;5074335;28;20036;-72
2022/01/31 03:17:47;;;;;;;7.53;5.93;;;;;;;-3.01;80.84;99106.63;5074664;28;20064;-72
2022/01/31 03:20:15;;;;;;;7.30;5.63;;;;;;;-3.03;80.42;99098.09;5056517;28;20503;-72
2022/01/31 03:22:41;;;;;;;7.22;5.55;;;;;;;-2.96;80.81;99099.28;5074470;28;20036;-71
2022/01/31 03:25:07;;;;;;;6.88;5.90;;;;;;;-3.01;79.64;99093.59;5074524;28;20037;-71
2022/01/31 03:27:32;;;;;;;6.57;5.13;;;;;;;-3.06;79.83;99111.34;5074673;28;20545;-70
2022/01/31 03:29:58;;;;;;;7.37;5.83;;;;;;;-3.15;80.64;99099.03;5073263;28;20266;-72
2022/01/31 03:32:23;;;;;;;5.63;5.07;;;;;;;-3.22;80.86;99087.41;5074258;28;20547;-71
2022/01/31 03:34:49;;;;;;;7.27;5.03;;;;;;;-3.11;80.75;99110.88;5084868;28;20035;-72
2022/01/31 03:37:14;;;;;;;11.53;6.63;;;;;;;-3.08;80.98;99117.63;5069684;28;20035;-70
2022/01/31 03:39:40;;;;;;;8.47;5.47;;;;;;;-3.09;80.47;99114.19;5086069;28;20040;-71
2022/01/31 03:42:06;;;;;;;9.73;6.27;;;;;;;-3.21;81.22;99091.69;5085771;28;20033;-69
2022/01/31 03:44:31;;;;;;;6.60;5.30;;;;;;;-3.08;80.69;99108.03;5066874;28;20036;-70
2022/01/31 03:46:57;;;;;;;6.73;5.40;;;;;;;-3.08;80.67;99105.44;5086953;28;20040;-68
2022/01/31 03:49:23;;;;;;;7.93;5.82;;;;;;;-3.20;79.86;99086.34;5087377;28;20039;-72
2022/01/31 03:51:49;;;;;;;10.13;6.20;;;;;;;-3.13;80.14;99107.56;5085987;28;20036;-72
2022/01/31 03:54:15;;;;;;;7.00;5.90;;;;;;;-3.22;80.88;99103.88;5062483;28;20119;-68
2022/01/31 03:56:41;;;;;;;6.93;5.77;;;;;;;-3.14;81.14;99101.53;5085716;28;20058;-70
2022/01/31 03:59:06;;;;;;;6.57;5.03;;;;;;;-3.16;80.53;99102.59;5086660;28;20120;-70
2022/01/31 04:01:32;;;;;;;7.80;6.10;;;;;;;-3.17;80.24;99096.56;5086639;28;20036;-72
2022/01/31 04:03:57;;;;;;;6.83;5.83;;;;;;;-3.28;80.25;99077.47;5056719;28;20162;-70
2022/01/31 04:06:24;;;;;;;7.90;5.60;;;;;;;-3.09;80.47;99109.00;5073550;28;20060;-70
2022/01/31 04:08:50;;;;;;;9.05;5.65;;;;;;;-3.08;80.27;99110.66;5073770;28;20178;-69
2022/01/31 04:11:16;;;;;;;9.05;7.03;;;;;;;-3.20;80.71;99101.13;5055615;28;20043;-70
2022/01/31 04:13:42;;;;;;;9.17;7.20;;;;;;;-3.25;80.49;99109.31;5074119;28;20032;-77
2022/01/31 04:16:07;;;;;;;10.83;5.90;;;;;;;-3.25;80.62;99116.28;5095220;28;20056;-72
2022/01/31 04:18:33;;;;;;;10.43;6.50;;;;;;;-3.20;81.06;99116.75;5081991;28;20035;-76
2022/01/31 04:20:59;;;;;;;9.50;6.50;;;;;;;-3.19;81.33;99124.47;5077145;28;20036;-70
2022/01/31 04:23:28;;;;;;;6.88;5.95;;;;;;;-3.30;81.38;99103.63;5075978;28;20041;-74
2022/01/31 04:25:54;;;;;;;9.55;7.03;;;;;;;-3.27;81.32;99111.19;5074732;28;20079;-70
2022/01/31 04:28:31;;;;;;;11.68;7.55;;;;;;;-3.39;81.21;99085.28;5072531;28;20036;-69
2022/01/31 04:31:00;;;;;;;7.95;6.38;;;;;;;-3.20;81.87;99120.19;5073053;28;20119;-66
2022/01/31 04:33:26;;;;;;;;;;;;;;;-3.16;81.71;99126.84;5055425;28;20044;-69
2022/01/31 04:35:52;;;;;;;11.88;6.80;;;;;;;-3.18;82.08;99109.66;5072781;28;19924;-72
2022/01/31 04:38:19;;;;;;;7.82;6.05;;;;;;;-3.11;82.08;99121.31;5072575;28;20039;-71
2022/01/31 04:40:45;;;;;;;8.55;6.93;;;;;;;-3.02;81.60;99119.75;5071986;28;20636;-71
2022/01/31 04:43:11;;;;;;;10.07;6.93;;;;;;;-2.95;81.80;99126.97;5054537;28;20094;-71
2022/01/31 04:45:37;;;;;;;10.73;8.03;;;;;;;-3.01;81.35;99124.84;5072609;28;20032;-71
2022/01/31 04:48:03;;;;;;;8.90;6.93;;;;;;;-2.85;81.81;99132.34;5073192;28;20032;-71
2022/01/31 04:50:28;;;;;;;10.00;7.17;;;;;;;-2.92;81.08;99139.78;5072820;28;20037;-73
2022/01/31 04:52:54;;;;;;;9.03;6.43;;;;;;;-2.99;81.26;99145.56;5072156;28;20848;-72
2022/01/31 04:55:19;;;;;;;7.03;6.30;;;;;;;-3.02;81.59;99131.00;5071843;28;20089;-71
2022/01/31 04:57:45;;;;;;;8.07;6.00;;;;;;;-2.96;80.91;99133.13;5072255;28;20471;-71
2022/01/31 05:00:11;;;;;;;9.93;7.23;;;;;;;-2.92;81.07;99131.94;5072448;28;20070;-70
2022/01/31 05:02:37;;;;;;;7.20;6.40;;;;;;;-3.11;80.49;99100.47;5072211;28;20127;-72
2022/01/31 05:05:03;;;;;;;10.47;6.43;;;;;;;-2.83;80.85;99140.88;5072683;28;20038;-71
2022/01/31 05:07:34;;;;;;;7.22;6.28;;;;;;;-2.87;80.48;99140.28;5072285;28;20166;-72
2022/01/31 05:10:00;;;;;;;7.40;6.57;;;;;;;-2.82;80.06;99152.94;5072059;28;20131;-70
2022/01/31 05:12:26;;;;;;;8.17;6.57;;;;;;;-2.87;79.58;99161.13;5054265;28;20067;-73
2022/01/31 05:14:52;;;;;;;7.93;6.22;;;;;;;-3.02;80.32;99151.84;5072114;28;20036;-72
2022/01/31 05:17:17;;;;;;;8.30;7.07;;;;;;;-3.02;80.29;99159.66;5037281;28;20047;-73
2022/01/31 05:19:43;;;;;;;9.77;7.60;;;;;;;-3.06;80.47;99163.44;5072424;28;20090;-71
2022/01/31 05:22:09;;;;;;;10.87;7.63;;;;;;;-3.39;79.96;99114.72;5072127;28;20041;-71
2022/01/31 05:24:34;;;;;;;8.60;6.73;;;;;;;-3.16;80.79;99163.31;5073104;28;20040;-72
2022/01/31 05:26:59;;;;;;;8.10;6.17;;;;;;;-3.18;79.97;99151.31;5054863;28;20039;-77
2022/01/31 05:29:25;;;;;;;12.67;7.33;;;;;;;-3.22;80.38;99157.72;5072450;28;20064;-73
2022/01/31 05:31:52;;;;;;;9.10;7.20;;;;;;;-3.16;80.69;99175.50;5072159;28;20043;-72
2022/01/31 05:34:20;;;;;;;7.72;6.45;;;;;;;-3.24;80.80;99162.19;5072082;28;20044;-72
2022/01/31 05:36:46;;;;;;;8.35;7.07;;;;;;;-3.91;80.66;99052.72;5072175;28;20036;-71
2022/01/31 05:39:11;;;;;;;10.75;7.13;;;;;;;-3.35;80.74;99138.75;5071927;28;20438;-71
2022/01/31 05:41:37;;;;;;;8.73;6.03;;;;;;;-3.18;80.32;99157.41;5072571;28;20055;-72
2022/01/31 05:44:03;;;;;;;7.23;6.27;;;;;;;-3.13;80.55;99157.88;5072537;28;20075;-73
2022/01/31 05:46:29;;;;;;;7.22;6.50;;;;;;;-3.19;79.55;99160.09;5056603;28;20078;-72
2022/01/31 05:48:54;;;;;;;7.63;6.53;;;;;;;-3.52;80.21;99112.19;5040924;28;20036;-73
2022/01/31 05:51:22;;;;;;;7.63;5.97;;;;;;;-3.25;81.08;99165.75;5072203;28;20036;-71
2022/01/31 05:53:50;;;;;;;9.02;7.85;;;;;;;-3.22;80.73;99174.16;5074959;28;20094;-72
2022/01/31 05:56:17;;;;;;;7.55;5.75;;;;;;;-3.46;79.89;99132.59;5076458;28;20032;-73
2022/01/31 05:58:43;;;;;;;8.32;6.85;;;;;;;-3.16;80.39;99165.91;5076791;28;20131;-68
2022/01/31 06:01:09;;;;;;;8.30;7.43;;;;;;;-3.24;80.43;99152.63;5075312;28;20356;-72
2022/01/31 06:03:35;;;;;;;7.63;6.33;;;;;;;-3.26;80.20;99164.09;5075811;28;20033;-70
2022/01/31 06:06:03;;;;;;;11.40;7.07;;;;;;;-3.25;80.67;99176.16;5075540;28;20458;-70
2022/01/31 06:08:35;;;;;;;9.35;8.13;;;;;;;-3.23;80.56;99184.69;5058089;28;20064;-73
2022/01/31 06:11:08;;;;;;;6.88;6.05;;;;;;;-3.32;80.62;99143.72;5076121;28;20403;-76
2022/01/31 06:13:34;;;;;;;8.03;7.03;;;;;;;-3.16;80.19;99165.91;5076412;28;20037;-75
2022/01/31 06:16:00;;;;;;;10.25;6.13;;;;;;;-3.26;79.60;99159.72;5076460;28;20037;-72
2022/01/31 06:18:25;;;;;;;8.02;6.60;;;;;;;-3.26;79.98;99179.72;5076511;28;20036;-71
2022/01/31 06:20:51;;;;;;;7.60;5.77;;;;;;;-3.34;79.90;99171.66;5057028;28;20032;-71
2022/01/31 06:23:16;;;;;;;9.50;7.33;;;;;;;-3.32;80.32;99165.38;5075870;28;20040;-70
2022/01/31 06:25:43;;;;;;;7.63;6.37;;;;;;;-3.22;80.05;99175.94;5075224;28;20056;-74
2022/01/31 06:28:09;;;;;;;9.55;8.15;;;;;;;-3.23;79.67;99174.28;5074913;28;20396;-65
2022/01/31 06:30:36;;;;;;;10.60;7.67;;;;;;;-3.26;80.61;99169.31;5074760;28;20128;-67
2022/01/31 06:33:02;;;;;;;8.15;7.28;;;;;;;-3.28;80.36;99179.81;5074840;28;20028;-67
2022/01/31 06:35:28;;;;;;;9.02;6.55;;;;;;;-3.20;80.37;99197.47;5074866;28;20511;-66
2022/01/31 06:37:53;;;;;;;9.90;6.87;;;;;;;-3.22;79.83;99196.75;5076785;28;20142;-69
2022/01/31 06:40:22;;;;;;;11.03;7.00;;;;;;;-3.30;79.33;99194.72;5057835;28;20036;-71
2022/01/31 06:42:47;;;;;;;9.15;7.65;;;;;;;-3.49;80.98;99178.81;5078088;28;20483;-70
2022/01/31 06:45:14;;;;;;;9.17;7.93;;;;;;;-3.72;80.81;99157.09;5057462;28;20040;-76
2022/01/31 06:47:40;;;;;;;10.00;8.25;;;;;;;-3.56;80.47;99183.63;5040255;28;20446;-70
2022/01/31 06:50:07;;;;;;;8.30;6.57;;;;;;;-3.61;81.25;99183.13;5074664;28;20037;-71
2022/01/31 06:52:36;;;;;;;9.40;6.85;;;;;;;-3.52;80.51;99182.47;5074861;28;20463;-64
2022/01/31 06:55:05;;;;;;;11.73;7.50;;;;;;;-3.42;79.75;99200.03;5074530;28;20134;-67
2022/01/31 06:57:34;;;;;;;;;;;;;;;-3.34;79.78;99198.50;5075173;28;20555;-76
2022/01/31 07:00:09;;;;;;;9.45;5.57;;;;;;;-3.35;80.34;99178.63;5074680;28;19916;-73
2022/01/31 07:02:35;;;;;;;10.77;7.10;;;;;;;-3.23;79.28;99195.09;5056490;28;20102;-71
2022/01/31 07:05:01;;;;;;;12.50;7.43;;;;;;;-3.27;80.00;99191.06;5073389;28;20878;-71
2022/01/31 07:07:30;;;;;;;12.40;8.38;;;;;;;-3.36;79.12;99181.34;5074686;28;20052;-72
2022/01/31 07:09:56;;;;;;;11.85;7.75;;;;;;;-3.27;79.71;99196.28;5073471;28;20036;-69
2022/01/31 07:12:31;;;;;;;8.68;7.78;;;;;;;-3.25;78.81;99194.38;5073114;28;20131;-70
2022/01/31 07:14:57;;;;;;;11.13;7.65;;;;;;;-3.18;79.44;99209.47;5056352;28;20128;-68
2022/01/31 07:17:22;;;;;;;9.30;7.37;;;;;;;-3.32;78.86;99174.97;5058662;28;20162;-73
2022/01/31 07:19:49;;;;;;;10.77;8.07;;;;;;;-3.16;78.97;99191.13;5080462;28;20033;-71
2022/01/31 07:22:15;;;;;;;12.52;7.45;;;;;;;-3.14;78.63;99208.28;5076194;28;20047;-70
2022/01/31 07:24:46;;;;;;;10.70;6.80;;;;;;;-3.24;78.08;99183.88;5056617;28;20143;-69
2022/01/31 07:27:11;;;;;;;8.73;7.03;;;;;;;-3.22;78.39;99184.56;5074402;28;20032;-69
2022/01/31 07:29:38;;;;;;;11.37;7.60;;;;;;;-3.13;78.52;99190.91;5056021;28;20090;-73
2022/01/31 07:32:07;;;;;;;10.57;7.53;;;;;;;-3.01;78.58;99191.75;5074063;28;20036;-73
2022/01/31 07:34:33;;;;;;;9.13;7.90;;;;;;;-3.03;77.88;99201.44;5074030;28;20037;-71
2022/01/31 07:36:58;;;;;;;8.17;6.83;;;;;;;-2.99;78.67;99203.69;5073881;28;20040;-69
2022/01/31 07:39:24;;;;;;;13.33;8.13;;;;;;;-2.98;77.75;99205.34;5074416;28;20040;-71
2022/01/31 07:41:49;;;;;;;10.70;7.70;;;;;;;-3.10;77.47;99179.41;5055747;28;20116;-65
2022/01/31 07:44:16;;;;;;;10.60;8.20;;;;;;;-2.98;77.17;99194.94;5074255;28;20486;-70
2022/01/31 07:46:42;;;;;;;10.40;7.00;;;;;;;-2.95;77.79;99192.09;5075986;28;20032;-70
2022/01/31 07:49:08;;;;;;;9.23;7.37;;;;;;;-3.12;76.92;99166.50;5073924;28;20082;-70
2022/01/31 07:51:38;;;;;;;11.18;7.43;;;;;;;-3.26;78.11;99145.88;5078506;28;20259;-68
2022/01/31 07:54:03;;;;;;;10.90;7.75;;;;;;;-2.84;77.63;99207.78;5083122;28;20591;-68
2022/01/31 07:56:29;;;;;;;10.83;8.60;;;;;;;-2.82;77.89;99215.47;5081268;28;20060;-74
2022/01/31 07:58:54;;;;;;;11.60;8.00;;;;;;;-2.96;76.89;99190.44;5075162;28;20052;-72
2022/01/31 08:01:20;;;;;;;8.73;7.43;;;;;;;-2.93;77.62;99192.81;5074349;28;20036;-73
2022/01/31 08:03:47;;;;;;;13.10;7.97;;;;;;;-2.87;76.56;99197.59;5073561;28;20050;-75
2022/01/31 08:06:13;;;;;;;10.52;7.78;;;;;;;-2.68;77.02;99210.03;5073766;28;20059;-74
2022/01/31 08:08:40;;;;;;;10.48;7.80;;;;;;;-2.65;76.60;99203.75;5073405;28;20154;-68
2022/01/31 08:11:06;;;;;;;9.85;7.20;;;;;;;-2.65;76.01;99190.72;5073695;28;20029;-73
2022/01/31 08:13:33;;;;;;;10.03;8.03;;;;;;;-2.49;76.57;99206.84;5073190;28;20040;-73
2022/01/31 08:18:34;;;;;;;12.55;9.70;;;;;;;-2.65;76.02;99207.19;5073822;28;20126;-74
2022/01/31 08:21:03;;;;;;;12.75;7.00;;;;;;;-2.68;76.46;99198.78;5073659;28;20035;-69
2022/01/31 08:23:29;;;;;;;11.60;8.13;;;;;;;-2.66;77.10;99209.91;5055745;28;20070;-71
2022/01/31 08:25:57;;;;;;;9.77;8.27;;;;;;;-2.74;76.87;99212.28;5073756;28;20584;-75
2022/01/31 08:28:32;;;;;;;10.93;8.02;;;;;;;-2.80;77.16;99205.75;5073463;28;20041;-72
2022/01/31 08:31:06;;;;;;;9.85;8.27;;;;;;;-2.74;77.67;99204.47;5055729;28;20036;-73
2022/01/31 08:33:43;;;;;;;14.87;10.13;;;;;;;-2.70;77.04;99198.91;5073017;28;20032;-73
2022/01/31 08:36:09;;;;;;;12.75;8.00;;;;;;;-2.61;76.83;99202.56;5073552;28;20270;-71
2022/01/31 08:38:39;;;;;;;10.55;7.75;;;;;;;-2.50;76.26;99213.84;5056273;28;20082;-70
2022/01/31 08:41:06;;;;;;;9.30;8.00;;;;;;;-2.58;75.74;99212.78;5073949;28;20094;-73
2022/01/31 08:43:36;;;;;;;11.32;7.82;;;;;;;-2.57;76.09;99225.69;5073709;28;20483;-70
2022/01/31 08:46:03;;;;;;;9.07;6.87;;;;;;;-2.64;76.52;99224.47;5055381;28;20044;-71
2022/01/31 08:48:30;;;;;;;11.25;8.43;;;;;;;-2.60;75.94;99214.69;5072634;28;20366;-75
2022/01/31 08:50:57;;;;;;;11.77;7.80;;;;;;;-2.47;75.74;99218.00;5072667;28;20068;-73
2022/01/31 08:53:22;;;;;;;12.05;8.95;;;;;;;-2.38;75.27;99219.88;5054498;28;20840;-70
2022/01/31 08:56:06;;;;;;;12.50;8.00;;;;;;;-2.37;75.26;99210.28;5072451;28;20071;-67
2022/01/31 08:58:33;;;;;;;12.45;8.75;;;;;;;-2.69;75.45;99178.88;5055879;28;20040;-71
2022/01/31 09:01:04;;;;;;;12.37;9.00;;;;;;;-2.59;75.91;99191.09;5039976;28;20421;-70
2022/01/31 09:03:42;;;;;;;12.60;10.18;;;;;;;-2.47;75.64;99218.00;5056168;28;20326;-73
2022/01/31 09:06:10;;;;;;;11.40;7.72;;;;;;;-2.50;76.06;99179.13;5074209;28;20106;-70
2022/01/31 09:08:37;;;;;;;11.20;8.10;;;;;;;-2.24;75.65;99217.06;5073441;28;20474;-74
2022/01/31 09:11:04;;;;;;;9.50;7.20;;;;;;;-2.23;75.39;99213.50;5055035;28;20101;-67
2022/01/31 09:13:30;;;;;;;17.95;8.00;;;;;;;-2.25;75.89;99214.56;5072037;28;20288;-74
2022/01/31 09:15:55;;;;;;;11.00;7.67;;;;;;;-2.32;75.68;99208.97;5054061;28;20032;-74
2022/01/31 09:18:21;;;;;;;10.33;7.73;;;;;;;-2.33;75.59;99216.91;5072717;28;20119;-76
2022/01/31 09:20:47;;;;;;;10.40;7.23;;;;;;;-2.28;75.75;99213.03;5072677;28;20070;-69
2022/01/31 09:23:12;;;;;;;10.10;7.27;;;;;;;-2.19;75.46;99209.69;5072234;28;20040;-75
2022/01/31 09:25:44;;;;;;;10.37;8.30;;;;;;;-2.09;75.00;99199.38;5037609;28;20040;-72
2022/01/31 09:28:10;;;;;;;13.77;8.23;;;;;;;-2.03;75.29;99224.13;5072124;28;20040;-71
2022/01/31 09:30:36;;;;;;;8.97;6.57;;;;;;;-2.02;74.72;99225.81;5071949;28;20281;-68
2022/01/31 09:33:02;;;;;;;11.13;7.67;;;;;;;-2.13;74.90;99202.34;5054136;28;20772;-68
2022/01/31 09:35:28;;;;;;;11.37;8.33;;;;;;;-2.00;73.71;99218.69;5054053;28;20314;-68
2022/01/31 09:37:53;;;;;;;9.43;7.17;;;;;;;-2.15;74.37;99209.44;5072132;28;20036;-68
2022/01/31 09:40:21;;;;;;;8.17;6.30;;;;;;;-1.88;73.90;99228.16;5071616;28;20050;-70
2022/01/31 09:46:05;;;;;;;11.90;6.30;;;;;;;-1.76;72.78;99215.91;5040111;28;20072;-69
2022/01/31 09:48:40;;;;;;;8.17;6.80;;;;;;;-1.69;72.89;99217.09;5071668;28;20364;-69
2022/01/31 09:51:17;;;;;;;10.73;7.07;;;;;;;-1.74;73.05;99220.03;5071741;28;20267;-67
2022/01/31 09:53:52;;;;;;;9.47;7.53;;;;;;;-1.80;72.93;99204.88;5071813;28;20642;-69
2022/01/31 09:56:24;;;;;;;10.87;7.00;;;;;;;-1.62;72.19;99221.69;5071682;28;20255;-70
2022/01/31 09:58:51;;;;;;;9.97;7.90;;;;;;;-1.57;72.10;99222.16;5071623;28;20622;-68
2022/01/31 10:01:21;;;;;;;11.53;7.17;;;;;;;-1.53;72.21;99216.69;5071502;28;20273;-67
2022/01/31 10:03:53;;;;;;;10.23;6.90;;;;;;;-1.60;71.75;99205.91;5071511;28;20298;-69
2022/01/31 10:06:26;;;;;;;7.73;5.93;;;;;;;-1.54;72.41;99220.25;5055540;28;20279;-70
2022/01/31 10:09:06;;;;;;;9.67;8.10;;;;;;;-1.23;72.67;99218.59;5073567;28;20726;-69
2022/01/31 10:11:41;;;;;;;9.57;7.10;;;;;;;-1.22;71.04;99200.16;5071520;28;20797;-68
2022/01/31 10:17:27;;;;;;;11.77;8.53;;;;;;;-0.88;70.21;99213.06;5071326;28;20292;-66
2022/01/31 10:19:58;;;;;;;11.05;7.60;;;;;;;-0.98;69.32;99207.78;5071687;28;20270;-67
2022/01/31 10:22:26;;;;;;;10.73;7.40;;;;;;;-0.89;69.20;99212.22;5053358;28;20164;-66
2022/01/31 10:24:54;;;;;;;11.00;7.50;;;;;;;-0.88;69.67;99223.50;5071508;28;20251;-69
2022/01/31 10:27:22;;;;;;;10.47;7.07;;;;;;;-0.90;70.36;99231.47;5071407;28;20041;-68
2022/01/31 10:30:17;;;;;;;9.50;7.33;;;;;;;-0.72;69.71;99226.50;5057356;28;20286;-70
2022/01/31 10:32:46;;;;;;;9.63;7.77;;;;;;;-0.54;68.41;99232.81;5071247;28;20312;-66
2022/01/31 10:35:32;;;;;;;8.23;6.60;;;;;;;-0.54;68.73;99232.00;5070881;28;20262;-69
2022/01/31 10:38:09;;;;;;;9.23;7.03;;;;;;;-0.43;68.33;99232.72;5070901;28;20055;-68
2022/01/31 10:56:41;;;;;;;11.20;7.50;;;;;;;-0.63;70.40;99238.81;5074582;28;20263;-69
2022/01/31 10:59:16;;;;;;;12.18;8.50;;;;;;;-0.76;68.62;99238.19;5056718;28;20679;-70
2022/01/31 11:01:45;;;;;;;11.53;8.57;;;;;;;-1.02;69.88;99238.56;5074606;28;20032;-68
2022/01/31 11:04:14;;;;;;;13.93;8.60;;;;;;;-1.22;70.98;99228.91;5056729;28;20286;-66
2022/01/31 11:06:47;;;;;;;14.57;7.60;;;;;;;-1.16;70.51;99223.16;5074689;28;20558;-68
2022/01/31 11:09:18;;;;;;;18.13;8.90;;;;;;;-1.08;70.57;99233.84;5074648;28;20278;-68
2022/01/31 11:11:46;;;;;;;12.20;8.47;;;;;;;-1.27;70.21;99224.06;5056308;28;20864;-70
2022/01/31 11:14:14;;;;;;;13.03;7.53;;;;;;;-1.15;69.93;99232.69;5074204;28;20267;-73
2022/01/31 11:16:42;;;;;;;12.73;8.97;;;;;;;-1.31;70.88;99233.09;5074107;28;20324;-73
2022/01/31 11:19:10;;;;;;;15.10;8.43;;;;;;;-1.36;70.92;99221.38;5056550;28;20369;-70
2022/01/31 11:21:40;;;;;;;13.40;7.93;;;;;;;-1.38;70.93;99228.50;5074025;28;20052;-71
2022/01/31 11:24:19;;;;;;;12.53;8.67;;;;;;;-1.47;71.55;99231.84;5056106;28;20286;-71
2022/01/31 11:26:50;;;;;;;16.10;8.80;;;;;;;-1.63;72.53;99227.88;5077106;28;20789;-70
2022/01/31 11:29:17;;;;;;;12.63;9.37;;;;;;;-1.63;71.66;99238.31;5039395;28;20064;-71
2022/01/31 11:31:47;;;;;;;14.70;9.57;;;;;;;-1.53;72.11;99232.34;5056235;28;20836;-73
2022/01/31 11:34:13;;;;;;;14.13;9.77;;;;;;;-1.69;71.68;99215.31;5074131;28;20258;-71
2022/01/31 11:36:40;;;;;;;16.53;9.23;;;;;;;-1.87;72.61;99193.28;5073943;28;20267;-71
2022/01/31 11:39:12;;;;;;;16.07;10.50;;;;;;;-1.39;72.82;99238.13;5074409;28;20768;-69
2022/01/31 11:41:53;;;;;;;13.57;8.87;;;;;;;-1.47;72.16;99242.28;5080077;28;20320;-68
2022/01/31 11:44:47;;;;;;;15.90;9.53;;;;;;;-1.58;73.37;99245.78;5081855;28;20360;-68
2022/01/31 11:47:13;;;;;;;13.43;9.03;;;;;;;-1.64;73.09;99226.22;5071961;28;20669;-70
2022/01/31 11:50:12;;;;;;;16.33;9.37;;;;;;;-1.54;73.27;99222.84;5082926;28;20267;-72
2022/01/31 11:52:55;;;;;;;11.23;8.75;;;;;;;-1.45;72.19;99240.38;5071649;28;20098;-73
2022/01/31 11:55:29;;;;;;;13.80;9.63;;;;;;;-1.58;72.21;99219.66;5077046;28;20492;-72
2022/01/31 11:57:57;;;;;;;16.67;10.03;;;;;;;-1.38;73.06;99233.72;5075003;28;20289;-69
2022/01/31 12:00:27;;;;;;;15.10;9.07;;;;;;;-1.44;72.95;99234.22;5056677;28;20274;-74